createdAt,value
2022-07-27T00:00:47.527Z,44.00
2022-07-27T00:03:14.106Z,44.00
2022-07-27T00:05:40.643Z,44.10
2022-07-27T00:08:07.176Z,44.00
2022-07-27T00:10:33.709Z,44.00
2022-07-27T00:13:05.670Z,43.90
2022-07-27T00:15:35.469Z,43.90
2022-07-27T00:18:01.995Z,43.90
2022-07-27T00:20:28.515Z,43.90
2022-07-27T00:22:55.044Z,43.80
2022-07-27T00:25:21.884Z,43.80
2022-07-27T00:27:48.385Z,43.80
2022-07-27T00:30:14.901Z,43.80
2022-07-27T00:32:41.441Z,43.80
2022-07-27T00:35:07.974Z,43.80
2022-07-27T00:37:34.479Z,43.70
2022-07-27T00:40:01.011Z,43.80
2022-07-27T00:42:27.522Z,43.70
2022-07-27T00:44:54.037Z,43.70
2022-07-27T00:47:20.539Z,43.70
2022-07-27T00:49:47.058Z,43.70
2022-07-27T00:52:13.566Z,43.60
2022-07-27T00:54:40.102Z,43.70
2022-07-27T00:57:06.622Z,43.60
2022-07-27T00:59:33.156Z,43.70
2022-07-27T01:01:59.799Z,43.70
2022-07-27T01:04:26.408Z,43.70
2022-07-27T01:06:52.971Z,43.60
2022-07-27T01:09:19.503Z,43.60
2022-07-27T01:11:46.027Z,43.70
2022-07-27T01:14:12.539Z,43.60
2022-07-27T01:16:39.096Z,43.60
2022-07-27T01:19:05.644Z,43.60
2022-07-27T01:21:34.084Z,43.50
2022-07-27T01:24:00.754Z,43.50
2022-07-27T01:26:27.269Z,43.60
2022-07-27T01:28:53.790Z,43.60
2022-07-27T01:31:20.390Z,43.40
2022-07-27T01:33:46.972Z,43.50
2022-07-27T01:36:13.504Z,43.50
2022-07-27T01:38:40.022Z,43.50
2022-07-27T01:41:06.548Z,43.50
2022-07-27T01:43:33.066Z,43.40
2022-07-27T01:46:02.177Z,43.40
2022-07-27T01:48:28.736Z,43.50
2022-07-27T01:50:55.258Z,43.40
2022-07-27T01:53:21.790Z,43.40
2022-07-27T01:55:48.353Z,43.40
2022-07-27T01:58:14.900Z,43.50
2022-07-27T02:00:41.442Z,43.40
2022-07-27T02:03:07.965Z,43.40
2022-07-27T02:05:34.599Z,43.50
2022-07-27T02:08:01.151Z,43.40
2022-07-27T02:10:27.700Z,43.30
2022-07-27T02:12:54.229Z,43.40
2022-07-27T02:15:20.779Z,43.40
2022-07-27T02:17:47.294Z,43.40
2022-07-27T02:20:17.590Z,43.40
2022-07-27T02:22:44.120Z,43.40
2022-07-27T02:25:10.645Z,43.40
2022-07-27T02:27:37.177Z,43.30
2022-07-27T02:30:03.706Z,43.30
2022-07-27T02:32:30.254Z,43.30
2022-07-27T02:34:56.790Z,43.40
2022-07-27T02:37:23.299Z,43.40
2022-07-27T02:39:49.820Z,43.40
2022-07-27T02:42:16.337Z,43.40
2022-07-27T02:44:42.844Z,43.50
2022-07-27T02:47:09.363Z,43.50
2022-07-27T02:49:35.865Z,43.40
2022-07-27T02:52:02.389Z,43.40
2022-07-27T02:54:28.915Z,43.40
2022-07-27T02:56:55.450Z,43.40
2022-07-27T02:59:21.984Z,43.40
2022-07-27T03:01:48.569Z,43.40
2022-07-27T03:04:15.156Z,43.40
2022-07-27T03:06:41.691Z,43.40
2022-07-27T03:09:08.381Z,43.40
2022-07-27T03:11:35.176Z,43.40
2022-07-27T03:14:01.705Z,43.30
2022-07-27T03:16:28.275Z,43.40
2022-07-27T03:18:54.833Z,43.40
2022-07-27T03:21:21.365Z,43.40
2022-07-27T03:23:48.115Z,43.40
2022-07-27T03:26:14.618Z,43.30
2022-07-27T03:28:41.132Z,43.30
2022-07-27T03:31:07.722Z,43.20
2022-07-27T03:33:34.281Z,43.20
2022-07-27T03:36:00.840Z,43.20
2022-07-27T03:38:27.358Z,43.30
2022-07-27T03:40:54.185Z,43.30
2022-07-27T03:43:20.724Z,43.20
2022-07-27T03:45:47.282Z,43.30
2022-07-27T03:48:13.860Z,43.30
2022-07-27T03:50:40.384Z,43.30
2022-07-27T03:53:06.917Z,43.20
2022-07-27T03:55:33.448Z,43.30
2022-07-27T03:57:59.961Z,43.30
2022-07-27T04:00:26.485Z,43.30
2022-07-27T04:02:53.052Z,43.30
2022-07-27T04:05:19.604Z,43.30
2022-07-27T04:07:46.162Z,43.40
2022-07-27T04:10:12.691Z,43.30
2022-07-27T04:12:41.425Z,43.30
2022-07-27T04:15:08.046Z,43.30
2022-07-27T04:17:55.652Z,43.30
2022-07-27T04:20:21.092Z,43.40
2022-07-27T04:22:47.630Z,43.40
2022-07-27T04:25:14.149Z,43.40
2022-07-27T04:27:40.675Z,43.40
2022-07-27T04:30:09.622Z,43.30
2022-07-27T04:32:36.396Z,43.40
2022-07-27T04:35:02.912Z,43.40
2022-07-27T04:37:29.434Z,43.30
2022-07-27T04:39:55.947Z,43.30
2022-07-27T04:42:22.475Z,43.30
2022-07-27T04:44:53.729Z,43.40
2022-07-27T04:47:23.727Z,43.60
2022-07-27T04:49:50.251Z,43.50
2022-07-27T04:52:16.782Z,43.50
2022-07-27T04:54:44.062Z,43.40
2022-07-27T04:57:10.601Z,43.30
2022-07-27T04:59:37.124Z,43.20
2022-07-27T05:02:03.654Z,43.10
2022-07-27T05:04:30.287Z,43.10
2022-07-27T05:06:57.038Z,42.90
2022-07-27T05:09:23.575Z,42.90
2022-07-27T05:11:51.005Z,42.80
2022-07-27T05:14:19.694Z,42.80
2022-07-27T05:16:53.955Z,42.80
2022-07-27T05:19:20.507Z,42.70
2022-07-27T05:21:47.050Z,42.70
2022-07-27T05:24:13.578Z,42.70
2022-07-27T05:26:40.084Z,42.70
2022-07-27T05:29:06.594Z,42.60
2022-07-27T05:31:33.198Z,42.70
2022-07-27T05:33:59.762Z,42.60
2022-07-27T05:36:26.291Z,42.60
2022-07-27T05:38:52.823Z,42.70
2022-07-27T05:41:19.328Z,42.60
2022-07-27T05:43:45.874Z,42.60
2022-07-27T05:46:12.444Z,42.60
2022-07-27T05:48:39.090Z,42.60
2022-07-27T05:51:05.692Z,42.60
2022-07-27T05:53:32.203Z,42.60
2022-07-27T05:55:59.864Z,42.70
2022-07-27T05:58:26.458Z,42.70
2022-07-27T06:00:53.001Z,42.60
2022-07-27T06:03:19.550Z,42.70
2022-07-27T06:05:46.087Z,42.70
2022-07-27T06:08:12.616Z,42.60
2022-07-27T06:10:39.150Z,42.70
2022-07-27T06:13:05.676Z,42.70
2022-07-27T06:15:32.191Z,42.70
2022-07-27T06:17:58.697Z,42.70
2022-07-27T06:20:25.218Z,42.70
2022-07-27T06:22:53.749Z,42.60
2022-07-27T06:25:23.801Z,42.70
2022-07-27T06:28:01.126Z,42.60
2022-07-27T06:30:27.695Z,42.60
2022-07-27T06:32:54.232Z,42.70
2022-07-27T06:35:22.960Z,42.50
2022-07-27T06:37:49.967Z,42.70
2022-07-27T06:40:16.498Z,42.60
2022-07-27T06:42:43.027Z,42.70
2022-07-27T06:45:09.568Z,42.60
2022-07-27T06:47:36.100Z,42.60
2022-07-27T06:50:16.057Z,42.70
2022-07-27T06:52:42.780Z,42.60
2022-07-27T06:55:09.346Z,42.60
2022-07-27T06:57:35.868Z,42.50
2022-07-27T07:00:02.425Z,42.50
2022-07-27T07:02:28.958Z,42.50
2022-07-27T07:04:55.487Z,42.40
2022-07-27T07:07:22.013Z,42.40
2022-07-27T07:09:48.543Z,42.50
2022-07-27T07:12:15.082Z,42.40
2022-07-27T07:14:41.608Z,42.30
2022-07-27T07:17:08.123Z,42.30
2022-07-27T07:19:34.656Z,42.20
2022-07-27T07:22:01.178Z,42.40
2022-07-27T07:24:27.709Z,42.20
2022-07-27T07:26:54.221Z,42.50
2022-07-27T07:29:20.741Z,42.80
2022-07-27T07:31:47.386Z,42.40
2022-07-27T07:34:17.960Z,42.40
2022-07-27T07:36:44.508Z,42.30
2022-07-27T07:39:11.247Z,42.30
2022-07-27T07:41:38.061Z,42.20
2022-07-27T07:44:04.565Z,42.10
2022-07-27T07:46:35.898Z,42.10
2022-07-27T07:49:02.649Z,42.40
2022-07-27T07:51:29.190Z,42.00
2022-07-27T07:53:55.715Z,42.20
2022-07-27T07:56:22.233Z,41.90
2022-07-27T07:58:48.750Z,41.90
2022-07-27T08:01:15.366Z,42.20
2022-07-27T08:03:43.303Z,42.10
2022-07-27T08:06:12.730Z,41.90
2022-07-27T08:08:39.266Z,42.10
2022-07-27T08:11:05.813Z,42.10
2022-07-27T08:13:32.342Z,42.10
2022-07-27T08:15:58.904Z,42.10
2022-07-27T08:18:25.443Z,41.90
2022-07-27T08:20:51.992Z,42.00
2022-07-27T08:23:18.499Z,41.80
2022-07-27T08:25:45.047Z,41.90
2022-07-27T08:28:11.668Z,41.80
2022-07-27T08:30:39.008Z,42.00
2022-07-27T08:33:06.180Z,41.80
2022-07-27T08:35:32.716Z,41.90
2022-07-27T08:37:59.249Z,42.00
2022-07-27T08:40:44.292Z,41.90
2022-07-27T08:43:13.037Z,41.90
2022-07-27T08:45:39.706Z,41.90
2022-07-27T08:48:06.211Z,41.90
2022-07-27T08:50:32.735Z,41.90
2022-07-27T08:52:59.286Z,41.90
2022-07-27T08:55:25.812Z,41.90
2022-07-27T08:57:52.354Z,41.90
2022-07-27T09:00:18.973Z,41.80
2022-07-27T09:02:45.581Z,41.90
2022-07-27T09:05:12.180Z,41.90
2022-07-27T09:07:38.692Z,42.00
2022-07-27T09:10:05.219Z,42.00
2022-07-27T09:12:31.805Z,41.90
2022-07-27T09:14:58.505Z,42.00
2022-07-27T09:20:17.440Z,41.90
2022-07-27T09:22:44.738Z,41.70
2022-07-27T09:25:11.278Z,42.10
2022-07-27T09:27:37.800Z,41.90
2022-07-27T09:30:04.313Z,41.90
2022-07-27T09:32:30.835Z,41.90
2022-07-27T09:34:57.360Z,41.80
2022-07-27T09:37:23.950Z,41.70
2022-07-27T09:39:50.497Z,41.80
2022-07-27T09:43:03.573Z,41.70
2022-07-27T09:45:03.545Z,41.70
2022-07-27T09:47:30.068Z,41.60
2022-07-27T09:49:57.880Z,41.60
2022-07-27T09:52:24.945Z,41.60
2022-07-27T09:54:51.449Z,41.50
2022-07-27T09:57:17.997Z,41.60
2022-07-27T09:59:44.531Z,41.60
2022-07-27T10:02:12.042Z,41.50
2022-07-27T10:04:38.708Z,41.50
2022-07-27T10:07:08.349Z,41.50
2022-07-27T10:09:39.127Z,41.60
2022-07-27T10:12:05.645Z,41.50
2022-07-27T10:14:32.157Z,41.50
2022-07-27T10:16:58.674Z,41.50
2022-07-27T10:19:25.182Z,41.50
2022-07-27T10:21:51.709Z,41.60
2022-07-27T10:24:18.233Z,41.70
2022-07-27T10:26:44.932Z,41.40
2022-07-27T10:29:14.321Z,41.50
2022-07-27T10:31:40.881Z,41.50
2022-07-27T10:34:07.438Z,41.40
2022-07-27T10:36:33.971Z,41.50
2022-07-27T10:39:00.490Z,41.50
2022-07-27T10:41:27.010Z,41.40
2022-07-27T10:43:53.532Z,41.50
2022-07-27T10:46:20.124Z,41.50
2022-07-27T10:48:49.107Z,41.50
2022-07-27T10:51:15.957Z,41.60
2022-07-27T10:54:10.503Z,41.60
2022-07-27T10:56:29.013Z,41.50
2022-07-27T10:58:56.667Z,41.50
2022-07-27T11:01:23.255Z,41.40
2022-07-27T11:03:49.808Z,41.40
2022-07-27T11:06:32.664Z,41.30
2022-07-27T11:11:47.957Z,41.40
2022-07-27T11:14:14.858Z,41.40
2022-07-27T11:16:55.547Z,41.50
2022-07-27T11:19:24.084Z,41.50
2022-07-27T11:21:50.736Z,41.50
2022-07-27T11:24:17.400Z,41.50
2022-07-27T11:26:44.038Z,41.50
2022-07-27T11:29:10.871Z,41.30
2022-07-27T11:31:54.708Z,41.40
2022-07-27T11:34:22.465Z,41.30
2022-07-27T11:36:48.985Z,41.30
2022-07-27T11:39:15.507Z,41.20
2022-07-27T11:42:08.182Z,41.10
2022-07-27T11:44:28.553Z,41.20
2022-07-27T11:47:02.175Z,41.30
2022-07-27T11:49:28.944Z,41.20
2022-07-27T11:51:55.524Z,41.20
2022-07-27T11:54:22.043Z,41.10
2022-07-27T11:56:48.569Z,41.20
2022-07-27T11:59:15.497Z,41.30
2022-07-27T12:01:42.340Z,41.10
2022-07-27T12:04:08.857Z,41.30
2022-07-27T12:06:35.375Z,41.20
2022-07-27T12:09:01.885Z,41.10
2022-07-27T12:11:34.076Z,41.10
2022-07-27T12:14:00.960Z,41.00
2022-07-27T12:16:27.523Z,41.20
2022-07-27T12:18:54.071Z,41.00
2022-07-27T12:21:20.586Z,41.30
2022-07-27T12:23:47.140Z,41.30
2022-07-27T12:26:13.659Z,41.20
2022-07-27T12:28:40.182Z,41.20
2022-07-27T12:31:06.772Z,41.20
2022-07-27T12:33:33.349Z,41.20
2022-07-27T12:36:00.069Z,41.30
2022-07-27T12:38:26.618Z,41.30
2022-07-27T12:40:58.274Z,41.20
2022-07-27T12:43:26.947Z,41.10
2022-07-27T12:45:53.517Z,41.10
2022-07-27T12:48:20.990Z,41.10
2022-07-27T12:50:47.505Z,41.00
2022-07-27T12:53:14.023Z,41.20
2022-07-27T12:55:40.536Z,41.10
2022-07-27T12:58:07.077Z,41.20
2022-07-27T13:00:34.407Z,41.30
2022-07-27T13:03:01.159Z,41.30
2022-07-27T13:05:30.289Z,40.90
2022-07-27T13:07:56.859Z,41.00
2022-07-27T13:10:23.359Z,41.00
2022-07-27T13:12:49.886Z,41.10
2022-07-27T13:15:16.452Z,40.90
2022-07-27T13:17:42.970Z,41.10
2022-07-27T13:20:09.509Z,40.80
2022-07-27T13:22:36.037Z,40.80
2022-07-27T13:25:02.568Z,40.90
2022-07-27T13:27:42.204Z,40.60
2022-07-27T13:30:08.736Z,40.70
2022-07-27T13:32:35.292Z,40.70
2022-07-27T13:35:01.845Z,40.80
2022-07-27T13:37:28.358Z,41.00
2022-07-27T13:39:54.870Z,40.80
2022-07-27T13:42:21.386Z,40.80
2022-07-27T13:45:05.661Z,41.00
2022-07-27T13:47:36.123Z,41.00
2022-07-27T13:50:06.142Z,41.00
2022-07-27T13:52:32.675Z,41.00
2022-07-27T13:54:59.196Z,41.10
2022-07-27T13:57:25.720Z,41.10
2022-07-27T13:59:52.254Z,41.00
2022-07-27T14:02:20.522Z,41.10
2022-07-27T14:04:49.661Z,41.10
2022-07-27T14:07:16.597Z,41.00
2022-07-27T14:09:43.126Z,41.00
2022-07-27T14:12:09.645Z,41.00
2022-07-27T14:14:36.152Z,41.10
2022-07-27T14:17:02.671Z,41.20
2022-07-27T14:19:31.513Z,41.00
2022-07-27T14:21:58.034Z,41.10
2022-07-27T14:24:24.553Z,41.10
2022-07-27T14:26:51.063Z,41.00
2022-07-27T14:29:17.590Z,41.00
2022-07-27T14:31:44.176Z,41.20
2022-07-27T14:34:10.725Z,41.00
2022-07-27T14:36:37.307Z,40.90
2022-07-27T14:39:03.869Z,40.50
2022-07-27T14:41:38.246Z,40.60
2022-07-27T14:44:07.749Z,40.90
2022-07-27T14:46:34.337Z,40.70
2022-07-27T14:49:06.157Z,40.80
2022-07-27T14:51:43.955Z,41.00
2022-07-27T14:54:10.469Z,41.10
2022-07-27T14:56:36.980Z,41.20
2022-07-27T14:59:03.517Z,41.20
2022-07-27T15:01:30.142Z,41.30
2022-07-27T15:03:56.720Z,41.40
2022-07-27T15:06:23.242Z,41.50
2022-07-27T15:08:49.781Z,41.40
2022-07-27T15:11:16.295Z,41.40
2022-07-27T15:13:42.822Z,41.40
2022-07-27T15:16:09.408Z,41.30
2022-07-27T15:18:38.634Z,41.40
2022-07-27T15:21:11.853Z,41.40
2022-07-27T15:23:39.681Z,41.40
2022-07-27T15:26:06.230Z,41.50
2022-07-27T15:28:32.761Z,41.50
2022-07-27T15:30:59.401Z,41.40
2022-07-27T15:33:25.957Z,41.40
2022-07-27T15:35:52.484Z,41.40
2022-07-27T15:38:19.006Z,41.30
2022-07-27T15:40:45.531Z,41.30
2022-07-27T15:43:12.144Z,41.30
2022-07-27T15:45:38.966Z,41.40
2022-07-27T15:48:05.542Z,41.40
2022-07-27T15:50:32.083Z,41.40
2022-07-27T15:52:58.603Z,41.40
2022-07-27T15:55:25.128Z,41.40
2022-07-27T15:57:51.639Z,41.40
2022-07-27T16:00:18.184Z,41.40
2022-07-27T16:05:28.667Z,41.30
2022-07-27T16:07:55.188Z,41.40
2022-07-27T16:10:21.718Z,41.20
2022-07-27T16:12:48.227Z,41.30
2022-07-27T16:15:14.771Z,40.90
2022-07-27T16:17:41.313Z,40.90
2022-07-27T16:20:07.834Z,40.80
2022-07-27T16:22:34.347Z,40.70
2022-07-27T16:25:00.857Z,40.90
2022-07-27T16:27:27.389Z,40.90
2022-07-27T16:29:53.952Z,40.70
2022-07-27T16:32:20.468Z,40.80
2022-07-27T16:34:46.986Z,40.80
2022-07-27T16:37:13.524Z,40.90
2022-07-27T16:39:40.047Z,40.80
2022-07-27T16:42:06.562Z,40.90
2022-07-27T16:44:33.072Z,41.00
2022-07-27T16:46:59.673Z,40.90
2022-07-27T16:49:36.530Z,41.00
2022-07-27T16:52:03.560Z,40.90
2022-07-27T16:54:31.449Z,40.70
2022-07-27T16:57:06.314Z,40.80
2022-07-27T16:59:32.841Z,40.80
2022-07-27T17:01:59.451Z,40.90
2022-07-27T17:04:26.065Z,40.80
2022-07-27T17:06:52.601Z,40.70
2022-07-27T17:09:19.126Z,41.00
2022-07-27T17:11:45.639Z,40.60
2022-07-27T17:14:12.968Z,40.90
2022-07-27T17:16:39.940Z,40.80
2022-07-27T17:19:06.452Z,40.70
2022-07-27T17:21:32.975Z,40.80
2022-07-27T17:24:00.296Z,40.90
2022-07-27T17:26:26.809Z,40.80
2022-07-27T17:28:53.318Z,40.80
2022-07-27T17:31:19.967Z,41.00
2022-07-27T17:33:46.513Z,40.90
2022-07-27T17:36:15.277Z,41.00
2022-07-27T17:38:42.104Z,41.00
2022-07-27T17:41:08.632Z,41.20
2022-07-27T17:43:35.329Z,41.10
2022-07-27T17:46:01.971Z,41.00
2022-07-27T17:48:28.522Z,41.00
2022-07-27T17:50:55.050Z,41.10
2022-07-27T17:53:21.559Z,41.10
2022-07-27T17:55:48.098Z,41.20
2022-07-27T17:58:14.611Z,41.10
2022-07-27T18:00:41.170Z,41.10
2022-07-27T18:03:07.706Z,41.10
2022-07-27T18:05:34.233Z,41.10
2022-07-27T18:08:00.749Z,41.20
2022-07-27T18:10:33.174Z,41.10
2022-07-27T18:13:03.218Z,41.10
2022-07-27T18:15:29.792Z,41.20
2022-07-27T18:17:56.357Z,41.00
2022-07-27T18:20:22.894Z,40.60
2022-07-27T18:22:49.416Z,40.80
2022-07-27T18:25:15.929Z,40.80
2022-07-27T18:27:42.458Z,40.60
2022-07-27T18:30:08.975Z,41.00
2022-07-27T18:32:35.628Z,41.10
2022-07-27T18:35:02.192Z,40.50
2022-07-27T18:37:28.727Z,40.70
2022-07-27T18:39:55.265Z,41.00
2022-07-27T18:42:21.780Z,40.60
2022-07-27T18:44:48.298Z,40.80
2022-07-27T18:47:14.834Z,40.30
2022-07-27T18:49:41.362Z,40.50
2022-07-27T18:52:07.896Z,40.70
2022-07-27T18:54:34.414Z,40.70
2022-07-27T18:57:00.944Z,40.40
2022-07-27T18:59:27.465Z,40.10
2022-07-27T19:01:54.037Z,40.50
2022-07-27T19:04:20.632Z,40.20
2022-07-27T19:06:51.312Z,40.70
2022-07-27T19:09:17.918Z,40.10
2022-07-27T19:11:44.463Z,40.50
2022-07-27T19:14:10.986Z,40.50
2022-07-27T19:16:37.589Z,40.50
2022-07-27T19:19:04.158Z,40.50
2022-07-27T19:21:30.680Z,40.30
2022-07-27T19:23:57.214Z,40.30
2022-07-27T19:26:23.742Z,40.30
2022-07-27T19:28:50.576Z,40.30
2022-07-27T19:31:22.211Z,40.30
2022-07-27T19:33:49.517Z,40.20
2022-07-27T19:36:16.034Z,40.20
2022-07-27T19:38:42.558Z,40.10
2022-07-27T19:41:09.079Z,40.20
2022-07-27T19:43:35.616Z,40.10
2022-07-27T19:46:02.172Z,40.00
2022-07-27T19:48:28.715Z,40.10
2022-07-27T19:50:55.217Z,40.00
2022-07-27T19:53:21.732Z,40.00
2022-07-27T19:55:48.247Z,40.10
2022-07-27T19:58:14.766Z,40.00
2022-07-27T20:00:41.292Z,40.00
2022-07-27T20:03:07.811Z,40.10
2022-07-27T20:05:34.344Z,39.90
2022-07-27T20:08:00.874Z,39.90
2022-07-27T20:10:27.402Z,39.80
2022-07-27T20:12:53.941Z,39.80
2022-07-27T20:15:24.554Z,39.90
2022-07-27T20:17:51.105Z,39.90
2022-07-27T20:20:17.623Z,39.80
2022-07-27T20:22:44.157Z,39.70
2022-07-27T20:25:10.794Z,39.80
2022-07-27T20:27:37.382Z,39.80
2022-07-27T20:30:03.889Z,39.70
2022-07-27T20:32:30.542Z,39.70
2022-07-27T20:34:57.059Z,39.60
2022-07-27T20:37:24.113Z,39.60
2022-07-27T20:39:50.641Z,39.80
2022-07-27T20:42:17.188Z,39.60
2022-07-27T20:44:48.521Z,39.60
2022-07-27T20:47:15.071Z,39.60
2022-07-27T20:49:41.576Z,39.70
2022-07-27T20:52:08.326Z,39.60
2022-07-27T20:54:34.846Z,39.60
2022-07-27T20:57:01.356Z,39.70
2022-07-27T20:59:27.892Z,39.80
2022-07-27T21:01:54.459Z,39.80
2022-07-27T21:04:21.158Z,39.90
2022-07-27T21:06:47.684Z,39.90
2022-07-27T21:09:14.728Z,39.80
2022-07-27T21:11:41.446Z,39.90
2022-07-27T21:14:07.985Z,39.90
2022-07-27T21:16:34.556Z,39.90
2022-07-27T21:19:01.131Z,40.00
2022-07-27T21:21:27.905Z,40.00
2022-07-27T21:23:54.483Z,40.00
2022-07-27T21:26:21.000Z,40.10
2022-07-27T21:28:49.654Z,40.00
2022-07-27T21:31:16.163Z,40.00
2022-07-27T21:33:42.763Z,40.00
2022-07-27T21:36:09.334Z,40.00
2022-07-27T21:38:36.020Z,39.90
2022-07-27T21:41:02.551Z,40.00
2022-07-27T21:43:29.076Z,40.10
2022-07-27T21:45:55.658Z,40.00
2022-07-27T21:48:22.220Z,40.00
2022-07-27T21:50:48.747Z,40.10
2022-07-27T21:53:15.276Z,40.10
2022-07-27T21:55:41.804Z,40.20
2022-07-27T21:58:08.592Z,40.20
2022-07-27T22:00:35.104Z,40.20
2022-07-27T22:03:01.644Z,40.20
2022-07-27T22:05:28.163Z,40.20
2022-07-27T22:07:54.701Z,40.10
2022-07-27T22:10:21.216Z,40.10
2022-07-27T22:12:48.579Z,40.10
2022-07-27T22:15:15.083Z,40.10
2022-07-27T22:17:46.093Z,40.10
2022-07-27T22:20:16.800Z,40.20
2022-07-27T22:22:43.334Z,40.10
2022-07-27T22:25:09.866Z,40.00
2022-07-27T22:27:36.380Z,40.10
2022-07-27T22:30:02.904Z,40.10
2022-07-27T22:32:29.420Z,40.10
2022-07-27T22:34:55.956Z,40.10
2022-07-27T22:37:22.492Z,40.10
2022-07-27T22:39:49.034Z,40.10
2022-07-27T22:42:15.564Z,40.00
2022-07-27T22:44:42.105Z,40.10
2022-07-27T22:47:08.639Z,40.00
2022-07-27T22:49:35.173Z,40.00
2022-07-27T22:52:01.699Z,40.00
2022-07-27T22:54:28.235Z,40.00
2022-07-27T22:56:54.768Z,40.00
2022-07-27T22:59:21.302Z,40.00
2022-07-27T23:01:48.507Z,40.00
2022-07-27T23:04:15.774Z,39.90
2022-07-27T23:06:42.699Z,39.90
2022-07-27T23:09:09.221Z,40.00
2022-07-27T23:11:36.565Z,40.00
2022-07-27T23:14:03.093Z,40.00
2022-07-27T23:16:29.673Z,39.90
2022-07-27T23:18:56.262Z,40.00
2022-07-27T23:21:24.574Z,40.00
2022-07-27T23:23:51.129Z,39.90
2022-07-27T23:26:20.653Z,39.90
2022-07-27T23:28:49.595Z,40.00
2022-07-27T23:31:16.189Z,39.90
2022-07-27T23:33:42.999Z,39.80
2022-07-27T23:36:09.510Z,39.90
2022-07-27T23:38:36.015Z,39.90
2022-07-27T23:41:02.529Z,39.90
2022-07-27T23:43:29.049Z,39.90
2022-07-27T23:45:55.589Z,39.90
2022-07-27T23:48:24.973Z,39.80
2022-07-27T23:50:51.958Z,39.80
2022-07-27T23:53:18.486Z,39.80
2022-07-27T23:55:45.018Z,39.70
2022-07-27T23:58:11.555Z,39.70
